Time;durP1;ratioP1;P1;durP2;ratioP2;P2;SDS_P1;SDS_P2;PMS_P1;PMS_P2;Temp;Humidity;BMP_temperature;BMP_pressure;BME280_temperature;BME280_humidity;BME280_pressure;Samples;Min_cycle;Max_cycle;Signal;HPM_P1;HPM_P2
2022/01/01 00:00:31;;;;;;;5.60;3.00;;;20.50;53.50;;;;;;4992700;28;20030;-84
2022/01/01 00:02:56;;;;;;;4.75;2.35;;;20.50;53.50;;;;;;4992168;28;20420;-84
2022/01/01 00:05:22;;;;;;;4.53;2.42;;;20.50;53.50;;;;;;4991882;28;20046;-85
2022/01/01 00:07:47;;;;;;;4.60;2.55;;;20.50;53.50;;;;;;4991544;28;20050;-85
2022/01/01 00:10:13;;;;;;;5.45;2.15;;;20.50;53.60;;;;;;4992404;28;20041;-84
2022/01/01 00:12:42;;;;;;;5.57;2.47;;;20.50;54.20;;;;;;4992422;28;20058;-84
2022/01/01 00:15:07;;;;;;;5.25;3.03;;;20.50;53.60;;;;;;4992982;28;20057;-84
2022/01/01 00:17:33;;;;;;;4.97;2.50;;;20.50;53.60;;;;;;4992602;28;20041;-84
2022/01/01 00:19:58;;;;;;;5.28;2.53;;;21.40;54.10;;;;;;4991900;28;20128;-85
2022/01/01 00:22:24;;;;;;;5.25;2.35;;;20.50;53.60;;;;;;4991864;28;20060;-85
2022/01/01 00:24:50;;;;;;;5.50;2.50;;;20.50;53.60;;;;;;4992033;28;20052;-85
2022/01/01 00:27:17;;;;;;;5.45;2.95;;;20.50;53.70;;;;;;5051229;28;20047;-85
2022/01/01 00:29:43;;;;;;;4.60;2.63;;;20.50;53.70;;;;;;5052093;28;20094;-85
2022/01/01 00:32:08;;;;;;;4.50;2.90;;;20.40;53.60;;;;;;5051634;28;20052;-85
2022/01/01 00:34:35;;;;;;;4.70;2.60;;;20.40;53.70;;;;;;5051303;28;20143;-85
2022/01/01 00:37:00;;;;;;;4.43;2.55;;;20.40;54.30;;;;;;5051888;28;20057;-85
2022/01/01 00:39:26;;;;;;;5.72;3.08;;;20.40;53.70;;;;;;5051863;28;20048;-85
2022/01/01 00:41:51;;;;;;;5.45;2.72;;;20.40;53.70;;;;;;5050692;28;20430;-85
2022/01/01 00:44:17;;;;;;;6.60;2.80;;;20.40;53.70;;;;;;5051430;28;20048;-85
2022/01/01 00:46:42;;;;;;;5.32;2.67;;;20.40;53.70;;;;;;5051548;28;20048;-84
2022/01/01 00:49:08;;;;;;;4.90;2.90;;;20.40;53.70;;;;;;5050859;28;20621;-85
2022/01/01 00:51:33;;;;;;;5.20;2.58;;;20.40;53.80;;;;;;5051713;28;20067;-85
2022/01/01 00:53:59;;;;;;;5.00;2.92;;;20.30;53.70;;;;;;5051384;28;20521;-85
2022/01/01 00:56:25;;;;;;;6.85;3.28;;;20.30;53.70;;;;;;5050519;28;20051;-85
2022/01/01 00:58:50;;;;;;;6.93;3.25;;;20.30;53.70;;;;;;5051367;28;20127;-85
2022/01/01 01:01:16;;;;;;;5.25;2.80;;;20.30;53.70;;;;;;5050500;28;20040;-84
2022/01/01 01:03:42;;;;;;;5.50;2.97;;;20.30;53.80;;;;;;5051098;28;20058;-85
2022/01/01 01:06:10;;;;;;;5.03;2.80;;;20.30;53.70;;;;;;5051238;28;20045;-85
2022/01/01 01:08:36;;;;;;;7.32;3.22;;;20.30;53.80;;;;;;5050635;28;20052;-85
2022/01/01 01:11:04;;;;;;;5.82;3.00;;;20.30;53.80;;;;;;5050260;28;20060;-85
2022/01/01 01:13:31;;;;;;;5.68;3.30;;;20.30;53.80;;;;;;5051544;28;20051;-85
2022/01/01 01:15:57;;;;;;;6.53;3.65;;;20.30;53.80;;;;;;5050284;28;20048;-85
2022/01/01 01:18:23;;;;;;;6.47;3.80;;;20.30;53.90;;;;;;5051056;28;20044;-85
2022/01/01 01:20:48;;;;;;;5.72;2.92;;;20.20;53.80;;;;;;5051512;28;20048;-85
2022/01/01 01:23:14;;;;;;;5.85;3.53;;;20.30;53.90;;;;;;5047906;28;20521;-84
2022/01/01 01:25:41;;;;;;;6.88;3.47;;;21.00;54.20;;;;;;5031450;28;20411;-85
2022/01/01 01:28:08;;;;;;;5.95;3.63;;;20.20;53.80;;;;;;5031348;28;20584;-85
2022/01/01 01:30:35;;;;;;;6.00;3.30;;;20.20;53.80;;;;;;5008659;28;20050;-85
2022/01/01 01:33:00;;;;;;;7.32;3.80;;;20.20;53.90;;;;;;5008231;28;20604;-85
2022/01/01 01:35:26;;;;;;;6.32;3.53;;;20.20;53.90;;;;;;4995601;28;20271;-84
2022/01/01 01:37:51;;;;;;;6.32;3.60;;;20.20;53.90;;;;;;5010584;28;20393;-84
2022/01/01 01:40:17;;;;;;;6.95;3.60;;;20.10;53.80;;;;;;5011475;28;20072;-85
2022/01/01 01:42:45;;;;;;;6.15;3.83;;;20.20;53.90;;;;;;5024256;28;20083;-85
2022/01/01 01:45:15;;;;;;;6.20;3.97;;;21.10;54.40;;;;;;5030516;28;20520;-85
2022/01/01 01:47:42;;;;;;;8.43;3.45;;;20.20;53.90;;;;;;5031301;28;20132;-84
2022/01/01 01:50:09;;;;;;;6.35;3.53;;;20.10;53.90;;;;;;5030891;28;20467;-84
2022/01/01 01:52:36;;;;;;;6.50;3.78;;;20.20;53.90;;;;;;5030275;28;20056;-85
2022/01/01 01:55:04;;;;;;;5.72;3.45;;;20.10;53.90;;;;;;4994266;28;20049;-85
2022/01/01 01:57:29;;;;;;;6.55;3.53;;;20.10;53.90;;;;;;5027162;28;20045;-85
2022/01/01 01:59:55;;;;;;;5.53;3.38;;;20.10;53.90;;;;;;5027332;28;20092;-85
2022/01/01 02:02:20;;;;;;;6.53;3.72;;;20.10;53.90;;;;;;5027465;28;20041;-85
2022/01/01 02:04:47;;;;;;;6.82;3.88;;;20.10;53.90;;;;;;5026692;28;20045;-85
2022/01/01 02:07:12;;;;;;;7.55;4.00;;;20.10;53.90;;;;;;5027457;28;20049;-85
2022/01/01 02:09:38;;;;;;;6.15;3.95;;;21.70;54.80;;;;;;5010767;28;20042;-85
2022/01/01 02:12:05;;;;;;;8.13;3.80;;;20.10;53.90;;;;;;5026944;28;20053;-85
2022/01/01 02:14:52;;;;;;;7.53;3.97;;;19.70;53.70;;;;;;5027833;28;20152;-84
2022/01/01 02:17:17;;;;;;;7.65;4.13;;;20.10;54.00;;;;;;5027218;28;20107;-85
2022/01/01 02:19:50;;;;;;;7.40;3.83;;;20.10;54.00;;;;;;5026761;28;20092;-84
2022/01/01 02:22:16;;;;;;;6.78;3.90;;;20.10;54.00;;;;;;5030376;28;20261;-84
2022/01/01 02:24:42;;;;;;;6.85;3.35;;;20.10;54.00;;;;;;5034266;28;20061;-84
2022/01/01 02:27:08;;;;;;;7.35;3.92;;;20.10;54.10;;;;;;5033732;28;20049;-84
2022/01/01 02:29:34;;;;;;;5.50;3.70;;;20.10;54.00;;;;;;5034000;28;20124;-84
2022/01/01 02:32:00;;;;;;;8.85;4.30;;;20.00;54.00;;;;;;5034022;28;20090;-84
2022/01/01 02:34:25;;;;;;;6.72;4.05;;;20.00;54.00;;;;;;5033688;28;20049;-84
2022/01/01 02:36:51;;;;;;;6.43;3.92;;;20.00;54.00;;;;;;5034166;28;20055;-85
2022/01/01 02:39:21;;;;;;;7.53;4.63;;;20.00;54.00;;;;;;5033883;28;20775;-85
2022/01/01 02:41:48;;;;;;;6.82;4.10;;;20.00;54.00;;;;;;5033137;28;20049;-84
2022/01/01 02:44:14;;;;;;;7.35;4.32;;;20.00;54.00;;;;;;5034153;28;20143;-84
2022/01/01 02:46:39;;;;;;;7.13;4.20;;;20.00;54.10;;;;;;5032056;28;20131;-84
2022/01/01 02:49:05;;;;;;;6.38;3.90;;;20.00;54.10;;;;;;5033760;28;20087;-84
2022/01/01 02:51:31;;;;;;;8.38;4.22;;;20.00;54.10;;;;;;5033988;28;20055;-84
2022/01/01 02:53:56;;;;;;;6.43;4.05;;;20.80;54.50;;;;;;5032788;28;20041;-85
2022/01/01 02:56:22;;;;;;;7.57;4.75;;;20.00;54.10;;;;;;5033993;28;20044;-85
2022/01/01 02:58:48;;;;;;;6.20;4.03;;;19.90;54.00;;;;;;5051826;28;20037;-85
2022/01/01 03:01:14;;;;;;;8.23;4.72;;;20.00;54.10;;;;;;5016354;28;20064;-85
2022/01/01 03:03:39;;;;;;;7.55;4.22;;;20.00;54.10;;;;;;5033874;28;20053;-85
2022/01/01 03:06:05;;;;;;;6.68;4.65;;;19.90;54.10;;;;;;5033816;28;20179;-85
2022/01/01 03:08:30;;;;;;;7.03;4.50;;;19.90;54.10;;;;;;5032762;28;20510;-84
2022/01/01 03:10:56;;;;;;;7.03;4.53;;;20.60;54.40;;;;;;5033881;28;20459;-85
2022/01/01 03:13:21;;;;;;;7.22;4.75;;;21.40;54.90;;;;;;5033364;28;20053;-85
2022/01/01 03:15:47;;;;;;;7.18;4.82;;;19.90;54.10;;;;;;5032460;28;20049;-85
2022/01/01 03:18:13;;;;;;;9.68;5.22;;;19.90;54.10;;;;;;5033212;28;20056;-85
2022/01/01 03:20:38;;;;;;;8.50;4.88;;;19.90;54.10;;;;;;5033516;28;20068;-84
2022/01/01 03:23:04;;;;;;;7.80;4.78;;;19.90;54.10;;;;;;5032232;28;20730;-85
2022/01/01 03:25:30;;;;;;;7.88;4.65;;;19.90;54.10;;;;;;5032838;28;20067;-84
2022/01/01 03:27:55;;;;;;;7.97;4.95;;;19.90;54.10;;;;;;5033248;28;20133;-84
2022/01/01 03:30:21;;;;;;;8.18;4.72;;;19.90;54.10;;;;;;5032207;28;20049;-84
2022/01/01 03:32:46;;;;;;;7.82;4.75;;;19.90;54.20;;;;;;5032271;28;20469;-84
2022/01/01 03:35:12;;;;;;;8.05;4.60;;;20.10;54.20;;;;;;5033160;28;20059;-84
2022/01/01 03:37:37;;;;;;;8.35;4.72;;;19.90;54.10;;;;;;5020922;28;20512;-84
2022/01/01 03:40:04;;;;;;;8.30;4.55;;;19.90;54.20;;;;;;5032642;28;20048;-84
2022/01/01 03:42:30;;;;;;;8.30;5.05;;;19.90;54.10;;;;;;5032832;28;20045;-84
2022/01/01 03:44:55;;;;;;;8.35;5.43;;;19.90;54.20;;;;;;4995808;28;20049;-84
2022/01/01 03:47:21;;;;;;;8.23;4.75;;;21.00;54.70;;;;;;5032801;28;20447;-84
2022/01/01 03:49:46;;;;;;;7.95;4.80;;;19.90;54.20;;;;;;5032899;28;20037;-84
2022/01/01 03:52:12;;;;;;;7.68;4.85;;;20.50;54.50;;;;;;5032280;28;20056;-84
2022/01/01 03:54:37;;;;;;;7.72;4.95;;;19.80;54.10;;;;;;5032614;28;20139;-84
2022/01/01 03:57:03;;;;;;;8.30;5.18;;;20.70;54.60;;;;;;5031829;28;20405;-84
2022/01/01 03:59:29;;;;;;;9.45;5.55;;;19.80;54.20;;;;;;5032368;28;20052;-84
2022/01/01 04:01:55;;;;;;;8.98;5.20;;;20.30;54.40;;;;;;5035176;28;20081;-84
2022/01/01 04:04:22;;;;;;;7.45;4.85;;;19.80;54.20;;;;;;5031752;28;20404;-84
2022/01/01 04:06:48;;;;;;;8.00;5.15;;;19.80;54.20;;;;;;5032393;28;20048;-84
2022/01/01 04:09:14;;;;;;;8.70;5.53;;;19.80;54.20;;;;;;5032589;28;20057;-84
2022/01/01 04:11:40;;;;;;;9.13;5.30;;;19.80;54.20;;;;;;5049423;28;20512;-84
2022/01/01 04:14:06;;;;;;;7.97;4.60;;;19.80;54.20;;;;;;5032172;28;20542;-84
2022/01/01 04:16:31;;;;;;;7.97;5.35;;;19.80;54.20;;;;;;5032194;28;20084;-84
2022/01/01 04:18:57;;;;;;;7.63;4.60;;;19.80;54.20;;;;;;5031199;28;20041;-85
2022/01/01 04:21:22;;;;;;;9.63;5.40;;;19.80;54.20;;;;;;5032171;28;20041;-84
2022/01/01 04:23:49;;;;;;;8.25;4.85;;;19.80;54.20;;;;;;5031677;28;20496;-85
2022/01/01 04:26:14;;;;;;;9.77;6.15;;;19.80;54.20;;;;;;5031624;28;20047;-85
2022/01/01 04:28:41;;;;;;;9.93;5.68;;;19.80;54.20;;;;;;5031950;28;20455;-85
2022/01/01 04:31:07;;;;;;;7.60;5.18;;;19.80;54.20;;;;;;5031937;28;20924;-85
2022/01/01 04:33:33;;;;;;;9.05;5.20;;;19.70;54.20;;;;;;5031379;28;20076;-85
2022/01/01 04:35:58;;;;;;;9.27;5.30;;;19.70;54.20;;;;;;5032312;28;20045;-84
2022/01/01 04:38:37;;;;;;;7.57;4.88;;;19.70;54.20;;;;;;5031876;28;20049;-84
2022/01/01 04:41:11;;;;;;;8.05;5.22;;;19.70;54.20;;;;;;5027536;28;20118;-84
2022/01/01 04:43:37;;;;;;;8.52;5.28;;;19.70;54.20;;;;;;5022248;28;20550;-84
2022/01/01 04:46:03;;;;;;;7.60;4.97;;;19.70;54.20;;;;;;5031998;28;20591;-84
2022/01/01 04:48:28;;;;;;;9.73;5.38;;;20.50;54.60;;;;;;5031051;28;20065;-84
2022/01/01 04:50:54;;;;;;;9.18;5.43;;;19.70;54.20;;;;;;5031841;28;20136;-85
2022/01/01 04:53:19;;;;;;;8.05;5.43;;;19.70;54.20;;;;;;5031121;28;20040;-84
2022/01/01 04:55:48;;;;;;;8.10;5.45;;;19.80;54.30;;;;;;5031538;28;20508;-84
2022/01/01 04:58:14;;;;;;;8.32;5.25;;;19.70;54.30;;;;;;5031390;28;20049;-85
2022/01/01 05:00:40;;;;;;;8.40;5.43;;;20.70;54.80;;;;;;5031057;28;20093;-85
2022/01/01 05:03:05;;;;;;;8.35;5.28;;;19.70;54.20;;;;;;5031685;28;20045;-85
2022/01/01 05:05:31;;;;;;;8.23;6.05;;;19.70;54.30;;;;;;5009350;28;20410;-85
2022/01/01 05:07:56;;;;;;;9.23;5.95;;;19.70;54.30;;;;;;4991234;28;20136;-84
2022/01/01 05:10:24;;;;;;;7.90;4.95;;;19.70;54.30;;;;;;4992294;28;20082;-84
2022/01/01 05:12:50;;;;;;;8.93;5.38;;;19.70;54.30;;;;;;4991924;28;20054;-84
2022/01/01 05:15:16;;;;;;;8.95;5.78;;;19.70;54.30;;;;;;4991309;28;20049;-84
2022/01/01 05:17:41;;;;;;;9.07;6.10;;;19.60;54.20;;;;;;4991807;28;20536;-84
2022/01/01 05:20:07;;;;;;;9.85;5.75;;;19.60;54.30;;;;;;4991753;28;20042;-84
2022/01/01 05:22:33;;;;;;;8.65;5.30;;;19.60;54.30;;;;;;4991404;28;20042;-84
2022/01/01 05:25:00;;;;;;;8.93;5.95;;;21.30;55.20;;;;;;4991716;28;20072;-84
2022/01/01 05:27:35;;;;;;;9.13;5.90;;;19.60;54.20;;;;;;4991853;28;20058;-84
2022/01/01 05:30:01;;;;;;;8.88;5.30;;;19.60;54.30;;;;;;4991342;28;20120;-85
2022/01/01 05:32:26;;;;;;;8.82;6.30;;;19.60;54.30;;;;;;4991709;28;20490;-84
2022/01/01 05:34:52;;;;;;;8.30;5.60;;;19.60;54.30;;;;;;4991754;28;20081;-84
2022/01/01 05:37:17;;;;;;;9.55;5.72;;;19.60;54.30;;;;;;4990629;28;20046;-84
2022/01/01 05:39:43;;;;;;;8.13;5.75;;;19.60;54.30;;;;;;4991720;28;20049;-84
2022/01/01 05:42:08;;;;;;;8.98;5.78;;;19.60;54.30;;;;;;4991968;28;20054;-84
2022/01/01 05:44:34;;;;;;;9.25;5.13;;;19.60;54.40;;;;;;4991001;28;20410;-84
2022/01/01 05:47:00;;;;;;;8.00;5.22;;;19.60;54.40;;;;;;5008517;28;20137;-84
2022/01/01 05:49:25;;;;;;;9.48;5.38;;;19.60;54.40;;;;;;5013250;28;20134;-85
2022/01/01 05:51:51;;;;;;;8.88;5.35;;;19.60;54.40;;;;;;5010889;28;20048;-84
2022/01/01 05:54:16;;;;;;;7.65;4.90;;;19.60;54.40;;;;;;5044249;28;20501;-84
2022/01/01 05:56:42;;;;;;;7.43;4.80;;;19.60;54.40;;;;;;4666604;28;10000765;-84
2022/01/01 05:59:07;;;;;;;7.65;4.85;;;19.60;54.40;;;;;;5015044;28;20049;-85
2022/01/01 06:01:33;;;;;;;7.05;4.30;;;19.70;54.50;;;;;;5014667;28;20058;-85
2022/01/01 06:03:58;;;;;;;8.18;5.03;;;19.70;54.50;;;;;;5014435;28;20069;-85
2022/01/01 06:06:24;;;;;;;8.07;4.70;;;19.70;54.60;;;;;;5014703;28;20049;-85
2022/01/01 06:08:49;;;;;;;7.47;5.00;;;19.70;54.60;;;;;;5014949;28;20060;-85
2022/01/01 06:11:15;;;;;;;7.65;4.95;;;19.80;54.60;;;;;;5014306;28;20053;-84
2022/01/01 06:13:40;;;;;;;7.57;4.35;;;19.80;54.60;;;;;;5015205;28;20140;-84
2022/01/01 06:16:06;;;;;;;7.63;4.80;;;20.40;55.00;;;;;;5015101;28;20543;-84
2022/01/01 06:18:31;;;;;;;7.75;4.88;;;19.80;54.90;;;;;;5013888;28;20049;-84
2022/01/01 06:20:57;;;;;;;7.43;4.32;;;19.90;54.60;;;;;;5014464;28;20037;-84
2022/01/01 06:23:23;;;;;;;7.50;4.53;;;19.90;54.60;;;;;;5013265;28;20053;-84
2022/01/01 06:25:48;;;;;;;7.93;4.82;;;19.90;54.60;;;;;;4994116;28;20050;-84
2022/01/01 06:28:14;;;;;;;6.20;4.15;;;19.90;54.50;;;;;;4994623;28;20136;-84
2022/01/01 06:30:40;;;;;;;7.10;4.40;;;19.90;54.50;;;;;;4996824;28;20104;-85
2022/01/01 06:33:16;;;;;;;8.40;4.20;;;19.90;54.50;;;;;;5001936;28;20577;-85
2022/01/01 06:35:45;;;;;;;7.53;5.00;;;19.90;54.50;;;;;;5008861;28;20054;-84
2022/01/01 06:38:11;;;;;;;7.20;4.38;;;19.90;54.40;;;;;;5010608;28;20050;-85
2022/01/01 06:40:36;;;;;;;6.60;4.32;;;20.00;54.50;;;;;;5008634;28;20038;-84
2022/01/01 06:43:02;;;;;;;6.75;4.15;;;20.00;54.40;;;;;;4993999;28;20049;-85
2022/01/01 06:45:28;;;;;;;6.75;4.25;;;20.00;54.40;;;;;;4992593;28;20108;-85
2022/01/01 06:47:53;;;;;;;6.35;3.53;;;20.00;54.40;;;;;;4974253;28;20414;-84
2022/01/01 06:50:19;;;;;;;6.53;3.97;;;20.00;54.40;;;;;;5021837;28;20065;-84
2022/01/01 06:52:44;;;;;;;6.95;4.05;;;20.10;54.50;;;;;;5010679;28;20092;-84
2022/01/01 06:55:11;;;;;;;4.82;3.33;;;20.10;54.50;;;;;;4993828;28;20053;-85
2022/01/01 06:57:37;;;;;;;6.53;4.38;;;20.10;54.40;;;;;;4994298;28;20069;-85
2022/01/01 07:00:03;;;;;;;7.38;4.40;;;21.80;55.30;;;;;;4992178;28;20053;-85
2022/01/01 07:02:29;;;;;;;6.05;3.60;;;20.10;54.40;;;;;;4994150;28;20050;-85
2022/01/01 07:04:54;;;;;;;6.95;4.40;;;21.40;55.10;;;;;;4993378;28;20052;-85
2022/01/01 07:07:20;;;;;;;6.93;4.28;;;20.20;54.40;;;;;;4991909;28;20081;-85
2022/01/01 07:09:48;;;;;;;7.47;3.65;;;20.20;54.40;;;;;;4993950;28;20057;-85
2022/01/01 07:12:14;;;;;;;5.93;3.60;;;20.20;54.30;;;;;;4988236;28;20136;-85
2022/01/01 07:14:39;;;;;;;7.00;3.60;;;20.20;54.30;;;;;;5014870;28;20152;-85
2022/01/01 07:17:05;;;;;;;6.95;4.22;;;20.30;54.40;;;;;;4993841;28;20042;-85
2022/01/01 07:19:30;;;;;;;7.00;3.78;;;20.40;54.40;;;;;;4996134;28;20076;-85
2022/01/01 07:21:59;;;;;;;5.78;3.67;;;20.30;54.30;;;;;;4993348;28;20054;-84
2022/01/01 07:24:28;;;;;;;6.20;3.67;;;20.30;54.30;;;;;;4993600;28;20056;-85
2022/01/01 07:26:54;;;;;;;6.68;3.78;;;20.30;54.30;;;;;;4993986;28;20049;-84
2022/01/01 07:29:19;;;;;;;5.90;3.70;;;20.30;54.30;;;;;;4992840;28;20564;-84
2022/01/01 07:31:45;;;;;;;7.00;3.50;;;20.30;54.20;;;;;;4993289;28;20137;-84
2022/01/01 07:34:10;;;;;;;6.07;3.60;;;20.40;54.30;;;;;;4993541;28;20046;-84
2022/01/01 07:36:36;;;;;;;5.45;3.78;;;20.40;54.20;;;;;;4992923;28;20405;-84
2022/01/01 07:39:02;;;;;;;7.28;3.63;;;20.40;54.20;;;;;;4993470;28;20124;-84
2022/01/01 07:41:28;;;;;;;5.47;3.58;;;20.40;54.20;;;;;;4993590;28;20049;-84
2022/01/01 07:43:53;;;;;;;6.25;3.92;;;20.40;54.10;;;;;;4992506;28;20042;-84
2022/01/01 07:46:19;;;;;;;4.97;3.33;;;20.40;54.10;;;;;;4993017;28;20123;-83
2022/01/01 07:48:44;;;;;;;6.22;3.55;;;20.40;54.10;;;;;;5009436;28;20102;-83
2022/01/01 07:51:10;;;;;;;5.68;3.45;;;20.40;54.00;;;;;;4992804;28;20042;-85
2022/01/01 07:53:36;;;;;;;5.35;3.40;;;20.40;54.00;;;;;;4993654;28;20049;-85
2022/01/01 07:56:01;;;;;;;6.22;3.90;;;20.40;54.00;;;;;;5010964;28;20545;-83
2022/01/01 07:58:27;;;;;;;5.65;3.75;;;20.40;54.00;;;;;;4992789;28;20074;-82
2022/01/01 08:00:53;;;;;;;5.03;3.05;;;20.30;53.90;;;;;;4997554;28;20108;-83
2022/01/01 08:03:19;;;;;;;5.78;3.78;;;20.50;54.00;;;;;;4995656;28;20117;-83
2022/01/01 08:05:44;;;;;;;4.70;2.92;;;20.50;54.00;;;;;;5002041;28;20077;-82
2022/01/01 08:08:10;;;;;;;6.05;3.70;;;20.40;53.90;;;;;;5008620;28;20088;-85
2022/01/01 08:10:37;;;;;;;5.90;3.20;;;20.40;53.90;;;;;;4996847;28;20046;-84
2022/01/01 08:13:03;;;;;;;7.30;4.18;;;20.40;53.90;;;;;;4997477;28;20042;-84
2022/01/01 08:15:29;;;;;;;5.93;3.03;;;20.60;54.00;;;;;;4995175;28;20050;-84
2022/01/01 08:17:55;;;;;;;5.78;3.65;;;20.50;53.90;;;;;;4991026;28;20502;-84
2022/01/01 08:20:20;;;;;;;5.50;3.47;;;21.20;54.30;;;;;;4991974;28;20168;-84
2022/01/01 08:22:46;;;;;;;7.43;3.40;;;20.50;54.00;;;;;;4992883;28;20453;-84
2022/01/01 08:25:12;;;;;;;6.45;3.80;;;20.40;53.80;;;;;;5005832;28;20572;-84
2022/01/01 08:27:37;;;;;;;6.40;3.13;;;20.50;53.90;;;;;;5011117;28;20037;-84
2022/01/01 08:30:03;;;;;;;5.45;3.17;;;20.40;53.80;;;;;;5010592;28;20045;-84
2022/01/01 08:32:29;;;;;;;5.75;3.33;;;20.50;53.90;;;;;;5004535;28;20064;-84
2022/01/01 08:34:54;;;;;;;5.82;3.45;;;20.40;53.80;;;;;;5012605;28;20048;-84
2022/01/01 08:37:20;;;;;;;6.03;3.28;;;20.40;53.80;;;;;;5011051;28;20488;-84
2022/01/01 08:39:45;;;;;;;5.60;3.60;;;20.40;53.80;;;;;;4998039;28;20417;-82
2022/01/01 08:42:11;;;;;;;6.55;4.15;;;20.40;53.80;;;;;;5002269;28;20055;-83
2022/01/01 08:44:36;;;;;;;5.82;3.35;;;20.40;53.80;;;;;;4994779;28;20259;-84
2022/01/01 08:47:02;;;;;;;5.32;3.10;;;20.40;53.80;;;;;;4312573;28;20002680;-83
2022/01/01 08:49:28;;;;;;;5.90;3.20;;;20.40;53.80;;;;;;4981047;28;20054;-83
2022/01/01 08:51:55;;;;;;;5.35;3.45;;;20.40;53.80;;;;;;4972343;28;20508;-82
2022/01/01 08:54:21;;;;;;;5.32;2.97;;;20.40;53.80;;;;;;4975596;28;20053;-81
2022/01/01 08:56:46;;;;;;;6.63;3.35;;;20.50;54.50;;;;;;4971554;28;20046;-80
2022/01/01 08:59:12;;;;;;;5.63;3.45;;;20.50;53.80;;;;;;4969322;28;20184;-83
2022/01/01 09:01:37;;;;;;;6.15;3.28;;;20.40;53.80;;;;;;4972145;28;20701;-85
2022/01/01 09:04:03;;;;;;;6.10;3.40;;;20.40;53.80;;;;;;4991865;28;20097;-85
2022/01/01 09:06:29;;;;;;;6.72;4.03;;;20.40;53.80;;;;;;5005989;28;20081;-85
2022/01/01 09:08:54;;;;;;;5.35;2.92;;;20.40;53.80;;;;;;4987129;28;20497;-85
2022/01/01 09:11:20;;;;;;;6.07;3.40;;;20.40;53.80;;;;;;4987091;28;20080;-85
2022/01/01 09:13:46;;;;;;;6.30;3.42;;;20.40;53.80;;;;;;5003148;28;20045;-84
2022/01/01 09:16:18;;;;;;;5.53;3.50;;;20.40;53.80;;;;;;5006502;28;20050;-85
2022/01/01 09:18:45;;;;;;;5.38;3.15;;;20.40;53.80;;;;;;4981947;28;20506;-83
2022/01/01 09:21:10;;;;;;;5.60;3.20;;;20.40;53.80;;;;;;4998389;28;20108;-83
2022/01/01 09:23:36;;;;;;;5.35;3.13;;;20.40;54.50;;;;;;5009365;28;20049;-83
2022/01/01 09:26:02;;;;;;;5.15;3.10;;;20.40;53.80;;;;;;5010707;28;20045;-83
2022/01/01 09:28:29;;;;;;;5.75;2.95;;;20.40;53.80;;;;;;5027092;28;20065;-83
2022/01/01 09:30:55;;;;;;;5.32;3.00;;;20.40;53.80;;;;;;5007590;28;20045;-83
2022/01/01 09:33:20;;;;;;;5.18;2.92;;;21.10;54.90;;;;;;5011419;28;20061;-83
2022/01/01 09:35:46;;;;;;;5.05;3.00;;;20.40;53.80;;;;;;4994566;28;20042;-83
2022/01/01 09:38:12;;;;;;;5.57;2.78;;;20.50;53.80;;;;;;5031030;28;20095;-83
2022/01/01 09:40:37;;;;;;;5.00;2.90;;;20.50;53.90;;;;;;5031894;28;20049;-84
2022/01/01 09:43:03;;;;;;;5.40;2.75;;;20.50;53.80;;;;;;5013845;28;20549;-83
2022/01/01 09:45:29;;;;;;;5.13;2.85;;;20.50;53.90;;;;;;5015363;28;20122;-84
2022/01/01 09:47:54;;;;;;;5.45;2.95;;;20.50;53.80;;;;;;5031827;28;20125;-83
2022/01/01 09:50:20;;;;;;;5.18;2.53;;;20.50;53.90;;;;;;4992468;28;20042;-83
2022/01/01 09:52:45;;;;;;;6.50;2.88;;;20.50;53.80;;;;;;5022081;28;20046;-83
2022/01/01 09:55:11;;;;;;;4.97;2.53;;;20.50;53.80;;;;;;5029081;28;20075;-83
2022/01/01 09:57:37;;;;;;;6.05;3.10;;;20.50;53.80;;;;;;5012002;28;20049;-85
2022/01/01 10:00:04;;;;;;;4.30;2.53;;;20.50;53.80;;;;;;5027723;28;20041;-85
2022/01/01 10:02:29;;;;;;;6.10;2.70;;;20.50;53.80;;;;;;5029724;28;20088;-85
2022/01/01 10:04:55;;;;;;;5.13;2.60;;;20.50;53.80;;;;;;5013277;28;20496;-85
2022/01/01 10:07:27;;;;;;;6.75;3.10;;;20.50;53.80;;;;;;5031028;28;20392;-85
2022/01/01 10:09:53;;;;;;;4.68;2.60;;;20.50;53.80;;;;;;5029548;28;20049;-85
2022/01/01 10:12:19;;;;;;;4.45;2.60;;;20.50;53.80;;;;;;5029052;28;20053;-84
2022/01/01 10:14:48;;;;;;;4.40;2.35;;;20.60;53.80;;;;;;5029366;28;20068;-85
2022/01/01 10:17:16;;;;;;;4.70;2.70;;;20.60;53.80;;;;;;5022504;28;20473;-85
2022/01/01 10:19:42;;;;;;;5.05;2.67;;;20.60;53.80;;;;;;5014566;28;20421;-85
2022/01/01 10:22:12;;;;;;;4.43;2.33;;;20.60;53.80;;;;;;5017693;28;20071;-85
2022/01/01 10:27:42;;;;;;;4.57;2.60;;;20.60;53.70;;;;;;5012077;28;20049;-83
2022/01/01 10:30:09;;;;;;;4.63;2.55;;;20.60;53.70;;;;;;4996345;28;20099;-83
2022/01/01 10:32:35;;;;;;;5.07;2.25;;;20.60;53.70;;;;;;5013250;28;20058;-83
2022/01/01 10:35:01;;;;;;;5.82;2.70;;;20.60;53.60;;;;;;5011751;28;20048;-83
2022/01/01 10:37:28;;;;;;;5.03;2.50;;;20.70;53.80;;;;;;4995239;28;20049;-83
2022/01/01 10:39:54;;;;;;;4.22;2.30;;;20.60;53.60;;;;;;5013840;28;20053;-83
2022/01/01 10:42:20;;;;;;;4.10;2.20;;;20.70;53.70;;;;;;4995774;28;20068;-81
2022/01/01 10:44:47;;;;;;;4.50;2.22;;;21.20;53.90;;;;;;5028000;28;20049;-83
2022/01/01 10:47:20;;;;;;;4.93;2.70;;;20.70;53.70;;;;;;5016461;28;20041;-83
2022/01/01 10:52:28;;;;;;;3.75;2.15;;;20.70;53.60;;;;;;5011412;28;20046;-83
2022/01/01 10:54:58;;;;;;;4.47;2.38;;;20.70;53.60;;;;;;5022957;28;20049;-83
2022/01/01 10:57:35;;;;;;;4.10;2.30;;;20.70;53.60;;;;;;5031384;28;20383;-83
2022/01/01 11:00:17;;;;;;;4.35;2.03;;;20.70;53.60;;;;;;5010571;28;20478;-83
2022/01/01 11:02:49;;;;;;;4.43;2.00;;;20.70;53.60;;;;;;5017693;28;20080;-83
2022/01/01 11:05:14;;;;;;;5.32;2.30;;;20.70;53.60;;;;;;5024746;28;20053;-83
2022/01/01 11:07:50;;;;;;;4.50;2.28;;;20.70;53.60;;;;;;5021564;28;20052;-83
2022/01/01 11:10:17;;;;;;;5.45;2.25;;;20.70;53.50;;;;;;5014067;28;20053;-85
2022/01/01 11:12:43;;;;;;;4.18;1.80;;;20.70;53.50;;;;;;5035915;28;20617;-85
2022/01/01 11:15:10;;;;;;;3.83;1.80;;;20.70;53.50;;;;;;5016133;28;20687;-85
2022/01/01 11:17:36;;;;;;;2.97;1.73;;;20.70;53.50;;;;;;5000383;28;20049;-85
2022/01/01 11:20:03;;;;;;;4.97;2.42;;;20.70;53.50;;;;;;4999991;28;20041;-85
2022/01/01 11:22:28;;;;;;;3.80;2.08;;;20.70;53.50;;;;;;5033189;28;20060;-85
2022/01/01 11:24:54;;;;;;;5.75;2.38;;;20.70;53.40;;;;;;5016747;28;20065;-85
2022/01/01 11:27:20;;;;;;;4.38;2.00;;;20.70;53.50;;;;;;5015857;28;20480;-85
2022/01/01 11:29:53;;;;;;;3.90;1.80;;;20.70;53.50;;;;;;5014768;28;20060;-83
2022/01/01 11:32:21;;;;;;;3.70;1.83;;;20.70;53.40;;;;;;5024834;28;20057;-83
2022/01/01 11:34:47;;;;;;;4.38;2.10;;;20.70;53.40;;;;;;5032177;28;20056;-83
2022/01/01 11:37:14;;;;;;;3.50;1.88;;;20.70;53.40;;;;;;5032754;28;20064;-84
2022/01/01 11:39:40;;;;;;;3.97;1.90;;;20.70;53.40;;;;;;5032399;28;20049;-83
2022/01/01 11:42:13;;;;;;;3.85;2.00;;;20.70;53.40;;;;;;4951202;28;20064;-82
2022/01/01 11:44:50;;;;;;;4.75;2.20;;;20.70;53.40;;;;;;5012993;28;20055;-83
2022/01/01 11:47:18;;;;;;;3.55;1.80;;;20.70;53.40;;;;;;5013138;28;20046;-83
2022/01/01 11:49:44;;;;;;;4.03;1.90;;;20.70;53.40;;;;;;5012083;28;20220;-83
2022/01/01 11:52:10;;;;;;;4.03;1.85;;;20.70;53.40;;;;;;5012949;28;20132;-83
2022/01/01 11:54:36;;;;;;;4.43;2.00;;;20.70;53.40;;;;;;4995812;28;20130;-83
2022/01/01 11:57:38;;;;;;;3.45;1.98;;;20.70;53.40;;;;;;5012245;28;20054;-83
2022/01/01 12:00:13;;;;;;;4.20;1.90;;;20.70;53.40;;;;;;4999821;28;20095;-83
2022/01/01 12:02:41;;;;;;;3.95;2.00;;;20.70;53.40;;;;;;5012304;28;20254;-83
2022/01/01 12:05:10;;;;;;;3.47;1.75;;;20.70;53.40;;;;;;5012469;28;20049;-83
2022/01/01 12:07:47;;;;;;;4.22;1.90;;;20.70;53.40;;;;;;5012547;28;20191;-84
2022/01/01 12:10:15;;;;;;;5.07;2.25;;;20.70;53.40;;;;;;5011323;28;20061;-83
2022/01/01 12:12:48;;;;;;;3.65;1.83;;;20.70;53.40;;;;;;5028742;28;20081;-83
2022/01/01 12:15:29;;;;;;;3.45;1.60;;;20.70;53.40;;;;;;5011257;28;20119;-83
2022/01/01 12:18:02;;;;;;;3.17;1.73;;;20.70;53.40;;;;;;5011801;28;20056;-83
2022/01/01 12:20:30;;;;;;;4.18;1.80;;;20.70;53.50;;;;;;5012232;28;20052;-83
2022/01/01 12:22:56;;;;;;;3.03;1.85;;;21.60;53.90;;;;;;5012462;28;20057;-83
2022/01/01 12:25:30;;;;;;;3.25;1.70;;;20.70;53.50;;;;;;5011212;28;20049;-83
2022/01/01 12:28:02;;;;;;;3.35;1.60;;;20.70;53.40;;;;;;5011426;28;20069;-82
2022/01/01 12:30:30;;;;;;;3.45;1.77;;;20.60;53.40;;;;;;5011522;28;20046;-83
2022/01/01 12:32:56;;;;;;;3.35;1.60;;;20.70;53.50;;;;;;5028542;28;20060;-83
2022/01/01 12:35:37;;;;;;;3.08;1.73;;;20.70;53.50;;;;;;5031827;28;20103;-83
2022/01/01 12:38:27;;;;;;;3.85;1.58;;;20.70;53.50;;;;;;5031017;28;20560;-83
2022/01/01 12:41:00;;;;;;;2.47;1.42;;;20.70;53.40;;;;;;5023403;28;20417;-83
2022/01/01 12:43:29;;;;;;;4.00;1.83;;;20.70;53.40;;;;;;5029139;28;20056;-82
2022/01/01 12:45:56;;;;;;;3.38;1.75;;;19.50;52.90;;;;;;5011618;28;20495;-82
2022/01/01 12:48:28;;;;;;;3.92;1.58;;;20.60;53.40;;;;;;5011958;28;20049;-83